createdAt,value
2019-02-14T00:01:53.011Z,1.10
2019-02-14T00:04:22.945Z,1.10
2019-02-14T00:06:52.887Z,1.10
2019-02-14T00:09:22.851Z,1.10
2019-02-14T00:11:52.807Z,1.00
2019-02-14T00:14:22.740Z,1.00
2019-02-14T00:16:52.737Z,1.00
2019-02-14T00:19:23.848Z,1.00
2019-02-14T00:21:53.799Z,1.00
2019-02-14T00:24:23.732Z,0.90
2019-02-14T00:26:53.839Z,1.00
2019-02-14T00:29:24.139Z,1.10
2019-02-14T00:31:54.082Z,1.20
2019-02-14T00:34:23.994Z,1.20
2019-02-14T00:36:53.969Z,1.10
2019-02-14T00:39:23.831Z,1.00
2019-02-14T00:41:53.733Z,0.90
2019-02-14T00:44:23.694Z,0.90
2019-02-14T00:46:53.948Z,0.80
2019-02-14T00:49:23.885Z,0.60
2019-02-14T00:51:53.814Z,0.60
2019-02-14T00:54:23.743Z,0.70
2019-02-14T00:56:53.639Z,0.80
2019-02-14T00:59:23.691Z,0.90
2019-02-14T01:01:53.594Z,0.90
2019-02-14T01:04:23.465Z,0.80
2019-02-14T01:06:53.390Z,0.90
2019-02-14T01:09:23.313Z,0.90
2019-02-14T01:11:53.511Z,1.00
2019-02-14T01:14:23.450Z,0.90
2019-02-14T01:16:53.390Z,0.90
2019-02-14T01:19:23.658Z,0.90
2019-02-14T01:21:53.555Z,0.90
2019-02-14T01:24:23.502Z,0.90
2019-02-14T01:26:53.427Z,0.80
2019-02-14T01:29:23.284Z,0.70
2019-02-14T01:31:53.178Z,0.60
2019-02-14T01:34:23.112Z,0.60
2019-02-14T01:36:53.035Z,0.50
2019-02-14T01:39:22.961Z,0.50
2019-02-14T01:41:53.114Z,0.60
2019-02-14T01:44:23.328Z,0.50
2019-02-14T01:46:53.261Z,0.40
2019-02-14T01:49:23.224Z,0.60
2019-02-14T01:51:53.128Z,0.60
2019-02-14T01:54:23.067Z,0.70
2019-02-14T01:56:53.221Z,0.50
2019-02-14T01:59:23.339Z,0.30
2019-02-14T02:04:22.378Z,0.30
2019-02-14T02:06:52.290Z,0.30
2019-02-14T02:09:22.464Z,0.20
2019-02-14T02:11:52.365Z,0.20
2019-02-14T02:14:22.222Z,0.30
2019-02-14T02:16:52.141Z,0.30
2019-02-14T02:19:22.470Z,0.30
2019-02-14T02:21:52.585Z,0.30
2019-02-14T02:24:22.489Z,0.20
2019-02-14T02:26:52.318Z,0.10
2019-02-14T02:29:22.262Z,0.10
2019-02-14T02:31:52.165Z,0.30
2019-02-14T02:34:22.118Z,0.30
2019-02-14T02:36:52.179Z,0.40
2019-02-14T02:39:22.153Z,0.40
2019-02-14T02:41:52.051Z,0.50
2019-02-14T02:44:21.967Z,0.40
2019-02-14T02:46:51.881Z,0.40
2019-02-14T02:49:21.830Z,0.60
2019-02-14T02:51:51.752Z,0.60
2019-02-14T02:54:21.689Z,0.60
2019-02-14T02:56:51.539Z,0.60
2019-02-14T02:59:21.906Z,0.50
2019-02-14T03:01:51.817Z,0.50
2019-02-14T03:04:21.692Z,0.50
2019-02-14T03:06:51.626Z,0.50
2019-02-14T03:09:21.557Z,0.70
2019-02-14T03:11:51.474Z,0.70
2019-02-14T03:14:21.346Z,0.60
2019-02-14T03:16:51.251Z,0.70
2019-02-14T03:19:21.524Z,0.60
2019-02-14T03:21:51.354Z,0.50
2019-02-14T03:24:21.284Z,0.40
2019-02-14T03:26:51.523Z,0.40
2019-02-14T03:29:21.434Z,0.40
2019-02-14T03:31:51.696Z,0.40
2019-02-14T03:34:21.603Z,0.40
2019-02-14T03:36:51.905Z,0.50
2019-02-14T03:39:21.841Z,0.40
2019-02-14T03:41:51.966Z,0.40
2019-02-14T03:44:21.992Z,0.50
2019-02-14T03:46:51.918Z,0.50
2019-02-14T03:49:21.857Z,0.60
2019-02-14T03:51:52.161Z,0.60
2019-02-14T03:54:22.240Z,0.50
2019-02-14T03:56:52.193Z,0.50
2019-02-14T03:59:22.129Z,0.60
2019-02-14T04:01:52.061Z,0.70
2019-02-14T04:04:21.966Z,0.70
2019-02-14T04:06:51.916Z,0.50
2019-02-14T04:09:21.758Z,0.50
2019-02-14T04:11:51.709Z,0.60
2019-02-14T04:14:21.556Z,0.60
2019-02-14T04:16:51.415Z,0.60
2019-02-14T04:19:21.318Z,0.60
2019-02-14T04:21:51.264Z,0.60
2019-02-14T04:24:21.485Z,0.60
2019-02-14T04:26:52.650Z,0.40
2019-02-14T04:29:22.975Z,0.40
2019-02-14T04:31:52.865Z,0.40
2019-02-14T04:36:52.046Z,0.20
2019-02-14T04:39:21.907Z,0.10
2019-02-14T04:41:52.152Z,0.20
2019-02-14T04:44:22.079Z,0.20
2019-02-14T04:46:52.036Z,0.10
2019-02-14T04:49:21.884Z,0.20
2019-02-14T04:51:51.841Z,0.30
2019-02-14T04:54:21.660Z,0.30
2019-02-14T04:56:51.632Z,0.40
2019-02-14T04:59:21.553Z,0.40
2019-02-14T05:01:51.499Z,0.50
2019-02-14T05:04:21.796Z,0.60
2019-02-14T05:06:51.746Z,0.50
2019-02-14T05:09:21.968Z,0.40
2019-02-14T05:11:51.920Z,0.50
2019-02-14T05:14:21.922Z,0.50
2019-02-14T05:16:51.853Z,0.60
2019-02-14T05:19:21.784Z,0.60
2019-02-14T05:21:51.718Z,0.60
2019-02-14T05:24:21.651Z,0.70
2019-02-14T05:26:51.595Z,0.70
2019-02-14T05:29:21.522Z,0.70
2019-02-14T05:31:51.496Z,0.80
2019-02-14T05:34:21.346Z,0.80
2019-02-14T05:36:53.652Z,0.90
2019-02-14T05:39:22.889Z,1.00
2019-02-14T05:41:53.161Z,0.90
2019-02-14T05:44:23.079Z,0.90
2019-02-14T05:46:53.094Z,1.00
2019-02-14T05:49:23.052Z,1.00
2019-02-14T05:51:52.995Z,0.90
2019-02-14T05:54:22.981Z,0.90
2019-02-14T05:56:52.863Z,0.80
2019-02-14T05:59:22.789Z,0.90
2019-02-14T06:01:52.717Z,0.80
2019-02-14T06:04:22.661Z,0.80
2019-02-14T06:06:52.534Z,0.80
2019-02-14T06:09:23.449Z,0.70
2019-02-14T06:11:53.338Z,0.80
2019-02-14T06:14:23.537Z,0.90
2019-02-14T06:16:53.495Z,0.90
2019-02-14T06:19:23.438Z,0.70
2019-02-14T06:21:53.737Z,0.60
2019-02-14T06:24:23.678Z,0.70
2019-02-14T06:26:53.617Z,0.70
2019-02-14T06:29:23.457Z,0.50
2019-02-14T06:31:53.390Z,0.40
2019-02-14T06:34:23.286Z,0.40
2019-02-14T06:36:53.225Z,0.50
2019-02-14T06:39:23.072Z,0.50
2019-02-14T06:41:53.046Z,0.70
2019-02-14T06:44:23.113Z,0.70
2019-02-14T06:46:53.157Z,0.70
2019-02-14T06:49:22.994Z,0.70
2019-02-14T06:51:52.910Z,0.80
2019-02-14T06:54:22.979Z,0.80
2019-02-14T06:56:52.925Z,0.80
2019-02-14T06:59:22.896Z,0.90
2019-02-14T07:01:52.773Z,1.10
2019-02-14T07:04:23.049Z,1.20
2019-02-14T07:06:52.965Z,1.20
2019-02-14T07:09:23.217Z,1.20
2019-02-14T07:11:53.230Z,1.40
2019-02-14T07:14:23.626Z,1.60
2019-02-14T07:16:53.645Z,1.50
2019-02-14T07:19:23.510Z,1.50
2019-02-14T07:21:53.486Z,1.50
2019-02-14T07:24:23.413Z,1.50
2019-02-14T07:26:53.370Z,1.70
2019-02-14T07:29:23.286Z,1.70
2019-02-14T07:31:53.261Z,1.60
2019-02-14T07:36:52.589Z,1.80
2019-02-14T07:44:20.925Z,2.20
2019-02-14T07:46:51.097Z,2.20
2019-02-14T07:49:21.031Z,2.80
2019-02-14T07:51:50.946Z,2.50
2019-02-14T07:54:21.180Z,3.00
2019-02-14T08:01:51.293Z,4.30
2019-02-14T08:06:51.652Z,5.70
2019-02-14T08:09:21.631Z,6.70
2019-02-14T08:11:51.565Z,7.50
2019-02-14T08:14:21.514Z,8.30
2019-02-14T08:16:53.030Z,9.80
2019-02-14T08:19:22.973Z,9.20
2019-02-14T08:21:52.838Z,8.00
2019-02-14T08:26:52.014Z,7.80
2019-02-14T08:34:20.448Z,9.20
2019-02-14T08:36:50.583Z,7.90
2019-02-14T08:39:20.520Z,8.10
2019-02-14T08:41:50.791Z,8.70
2019-02-14T08:44:20.751Z,10.60
2019-02-14T08:46:50.766Z,11.00
2019-02-14T08:49:20.717Z,12.10
2019-02-14T08:51:50.856Z,11.70
2019-02-14T08:54:20.997Z,12.30
2019-02-14T08:56:51.111Z,11.90
2019-02-14T08:59:21.150Z,11.30
2019-02-14T09:01:51.087Z,11.60
2019-02-14T09:04:20.953Z,11.70
2019-02-14T09:06:50.903Z,12.40
2019-02-14T09:09:21.242Z,13.80
2019-02-14T09:11:51.149Z,13.00
2019-02-14T09:19:19.507Z,12.40
2019-02-14T09:21:49.458Z,12.70
2019-02-14T09:24:19.473Z,13.30
2019-02-14T09:31:47.942Z,12.60
2019-02-14T09:36:47.234Z,11.30
2019-02-14T09:39:17.245Z,11.00
2019-02-14T09:44:16.400Z,10.60
2019-02-14T09:51:45.236Z,11.60
2019-02-14T09:59:13.772Z,11.30
2019-02-14T10:01:43.762Z,11.70
2019-02-14T10:04:13.720Z,12.10
2019-02-14T10:06:43.726Z,13.40
2019-02-14T10:09:13.656Z,14.40
2019-02-14T10:14:12.819Z,15.40
2019-02-14T10:24:10.462Z,15.50
2019-02-14T10:26:40.381Z,15.40
2019-02-14T10:29:10.337Z,16.00
2019-02-14T10:31:40.176Z,16.10
2019-02-14T10:34:10.445Z,16.50
2019-02-14T10:36:40.375Z,17.50
2019-02-14T10:44:09.450Z,17.20
2019-02-14T10:46:39.736Z,17.60
2019-02-14T10:49:10.412Z,16.30
2019-02-14T10:51:40.347Z,15.50
2019-02-14T10:54:10.612Z,14.80
2019-02-14T10:56:40.529Z,14.50
2019-02-14T10:59:10.676Z,14.20
2019-02-14T11:01:40.792Z,13.70
2019-02-14T11:04:10.810Z,13.80
2019-02-14T11:26:35.533Z,13.60
2019-02-14T11:34:04.929Z,15.40
2019-02-14T11:39:06.005Z,14.70
2019-02-14T11:44:05.184Z,13.90
2019-02-14T11:46:35.882Z,13.80
2019-02-14T11:49:07.326Z,13.70
2019-02-14T11:56:36.976Z,13.50
2019-02-14T12:24:01.342Z,14.40
2019-02-14T12:29:00.541Z,14.20
2019-02-14T12:31:30.421Z,14.70
2019-02-14T12:34:00.333Z,15.30
2019-02-14T12:39:08.372Z,15.80
2019-02-14T12:46:29.861Z,17.60
2019-02-14T12:51:29.325Z,17.50
2019-02-14T13:01:27.143Z,17.20
2019-02-14T13:08:55.869Z,18.40
2019-02-14T13:21:22.801Z,18.50
2019-02-14T13:23:52.739Z,17.70
2019-02-14T13:26:22.990Z,17.50
2019-02-14T13:28:52.927Z,17.70
2019-02-14T13:31:31.632Z,17.90
2019-02-14T13:38:53.137Z,18.70
2019-02-14T13:41:30.905Z,17.80
2019-02-14T13:43:54.634Z,17.80
2019-02-14T13:46:25.029Z,17.50
2019-02-14T13:48:54.987Z,16.50
2019-02-14T13:51:24.951Z,16.30
2019-02-14T13:56:24.110Z,17.60
2019-02-14T14:03:52.666Z,19.10
2019-02-14T14:08:51.858Z,19.40
2019-02-14T14:11:22.038Z,19.10
2019-02-14T14:13:51.938Z,19.30
2019-02-14T14:21:20.253Z,18.10
2019-02-14T14:23:50.165Z,18.30
2019-02-14T14:26:20.213Z,17.70
2019-02-14T14:28:50.141Z,16.70
2019-02-14T14:36:18.828Z,17.40
2019-02-14T14:38:48.749Z,17.50
2019-02-14T14:41:18.629Z,17.50
2019-02-14T14:43:57.470Z,17.50
2019-02-14T14:49:11.085Z,16.80
2019-02-14T14:56:40.953Z,17.80
2019-02-14T14:59:10.906Z,18.30
2019-02-14T15:04:10.136Z,18.90
2019-02-14T15:09:09.325Z,19.20
2019-02-14T15:14:08.955Z,18.40
2019-02-14T15:16:38.899Z,19.00
2019-02-14T15:19:08.872Z,19.00
2019-02-14T15:21:38.802Z,18.30
2019-02-14T15:24:08.737Z,18.00
2019-02-14T15:26:38.677Z,17.20
2019-02-14T15:32:20.772Z,17.30
2019-02-14T15:34:51.571Z,17.30
2019-02-14T15:39:51.339Z,17.40
2019-02-14T15:42:21.569Z,17.20
2019-02-14T15:47:21.145Z,16.50
2019-02-14T15:49:51.138Z,15.70
2019-02-14T15:52:21.313Z,15.10
2019-02-14T15:54:51.286Z,15.00
2019-02-14T15:57:21.212Z,14.50
2019-02-14T15:59:51.111Z,14.20
2019-02-14T16:07:21.103Z,12.50
2019-02-14T16:12:21.911Z,11.80
2019-02-14T16:19:50.837Z,10.90
2019-02-14T16:37:18.242Z,10.00
2019-02-14T16:42:19.602Z,9.90
2019-02-14T16:44:49.926Z,9.80
2019-02-14T16:49:49.429Z,9.60
2019-02-14T16:52:19.481Z,9.50
2019-02-14T16:59:48.241Z,9.40
2019-02-14T17:02:18.173Z,9.30
2019-02-14T17:04:48.129Z,9.20
2019-02-14T17:07:21.468Z,9.10
2019-02-14T17:22:19.330Z,8.90
2019-02-14T17:27:18.776Z,8.60
2019-02-14T17:39:45.826Z,8.30
2019-02-14T17:44:44.838Z,8.30
2019-02-14T17:47:14.782Z,8.10
2019-02-14T17:52:13.962Z,8.10
2019-02-14T17:54:44.494Z,8.00
2019-02-14T17:59:43.657Z,8.10
2019-02-14T18:02:13.965Z,7.90
2019-02-14T18:04:43.831Z,7.90
2019-02-14T18:07:13.774Z,8.00
2019-02-14T18:09:43.713Z,7.90
2019-02-14T18:12:13.550Z,8.00
2019-02-14T18:17:12.641Z,7.90
2019-02-14T18:19:42.534Z,7.50
2019-02-14T18:24:41.698Z,7.20
2019-02-14T18:29:40.858Z,7.50
2019-02-14T18:32:11.143Z,7.40
2019-02-14T18:42:09.145Z,7.20
2019-02-14T18:44:39.356Z,7.60
2019-02-14T18:49:38.554Z,7.40
2019-02-14T18:52:09.801Z,7.00
2019-02-14T18:57:09.017Z,6.90
2019-02-14T19:09:35.747Z,6.50
2019-02-14T19:12:12.670Z,6.50
2019-02-14T19:14:45.110Z,6.50
2019-02-14T19:17:17.827Z,6.40
2019-02-14T19:19:47.750Z,6.20
2019-02-14T19:29:45.163Z,5.70
2019-02-14T19:37:13.501Z,5.60
2019-02-14T19:39:43.547Z,5.60
2019-02-14T19:47:12.002Z,5.50
2019-02-14T19:49:42.022Z,5.40
2019-02-14T19:54:41.988Z,5.30
2019-02-14T19:57:12.998Z,5.30
2019-02-14T19:59:42.921Z,5.20
2019-02-14T20:04:43.698Z,5.20
2019-02-14T20:07:13.670Z,5.20
2019-02-14T20:09:44.158Z,5.20
2019-02-14T20:12:14.130Z,5.20
2019-02-14T20:17:14.493Z,5.30
2019-02-14T20:19:44.590Z,4.70
2019-02-14T20:29:42.321Z,5.20
2019-02-14T20:39:41.334Z,5.00
2019-02-14T20:47:09.791Z,4.90
2019-02-14T20:52:08.926Z,4.80
2019-02-14T20:54:38.918Z,5.00
2019-02-14T21:02:07.718Z,4.90
2019-02-14T21:04:37.669Z,4.70
2019-02-14T21:12:06.006Z,4.30
2019-02-14T21:14:35.950Z,4.40
2019-02-14T21:17:05.864Z,5.30
2019-02-14T21:19:36.138Z,4.20
2019-02-14T21:27:04.602Z,4.00
2019-02-14T21:32:03.871Z,4.10
2019-02-14T21:34:33.862Z,4.00
2019-02-14T21:37:03.807Z,4.20
2019-02-14T21:42:18.603Z,4.20
2019-02-14T21:44:34.778Z,4.00
2019-02-14T21:49:34.423Z,3.70
2019-02-14T21:54:33.750Z,3.90
2019-02-14T21:59:33.081Z,3.40
2019-02-14T22:12:02.007Z,3.80
2019-02-14T22:14:31.896Z,3.70
2019-02-14T22:22:00.305Z,3.60
2019-02-14T22:31:58.532Z,3.30
2019-02-14T22:36:57.959Z,3.20
2019-02-14T22:41:57.134Z,3.10
2019-02-14T22:44:27.093Z,2.90
2019-02-14T22:51:55.471Z,3.10
2019-02-14T22:54:25.746Z,3.00
2019-02-14T22:56:55.926Z,3.10
2019-02-14T23:04:24.582Z,2.90
2019-02-14T23:11:53.173Z,2.70
2019-02-14T23:16:52.383Z,2.90
2019-02-14T23:21:51.533Z,3.60
2019-02-14T23:24:21.537Z,3.60
2019-02-14T23:26:51.457Z,2.70
2019-02-14T23:34:20.153Z,2.80
2019-02-14T23:39:19.229Z,2.80
2019-02-14T23:41:49.126Z,2.80
2019-02-14T23:44:19.069Z,2.40
2019-02-14T23:46:49.006Z,2.10
2019-02-14T23:51:48.236Z,2.70
2019-02-14T23:56:47.490Z,2.40
2019-02-14T23:59:17.481Z,2.70
